sensor_id;sensor_type;location;lat;lon;timestamp;temperature;humidity
65876;HTU21D;52657;51.128;5.938;2022-11-03T00:01:11;14.34;65.75
65876;HTU21D;52657;51.128;5.938;2022-11-03T00:03:37;14.34;65.66
65876;HTU21D;52657;51.128;5.938;2022-11-03T00:06:03;14.35;65.59
65876;HTU21D;52657;51.128;5.938;2022-11-03T00:11:12;14.35;65.35
65876;HTU21D;52657;51.128;5.938;2022-11-03T00:13:41;14.36;65.36
65876;HTU21D;52657;51.128;5.938;2022-11-03T00:16:09;14.39;65.27
65876;HTU21D;52657;51.128;5.938;2022-11-03T00:18:35;14.39;65.24
65876;HTU21D;52657;51.128;5.938;2022-11-03T00:21:12;14.39;65.20
65876;HTU21D;52657;51.128;5.938;2022-11-03T00:23:41;14.35;65.24
65876;HTU21D;52657;51.128;5.938;2022-11-03T00:26:19;14.37;65.19
65876;HTU21D;52657;51.128;5.938;2022-11-03T00:28:47;14.35;65.20
65876;HTU21D;52657;51.128;5.938;2022-11-03T00:31:16;14.35;65.09
65876;HTU21D;52657;51.128;5.938;2022-11-03T00:33:43;14.36;64.98
65876;HTU21D;52657;51.128;5.938;2022-11-03T00:36:13;14.39;64.93
65876;HTU21D;52657;51.128;5.938;2022-11-03T00:38:39;14.39;64.83
65876;HTU21D;52657;51.128;5.938;2022-11-03T00:41:05;14.38;64.83
65876;HTU21D;52657;51.128;5.938;2022-11-03T00:43:33;14.40;64.74
65876;HTU21D;52657;51.128;5.938;2022-11-03T00:46:00;14.39;64.71
65876;HTU21D;52657;51.128;5.938;2022-11-03T00:48:26;14.40;64.68
65876;HTU21D;52657;51.128;5.938;2022-11-03T00:51:12;14.40;64.59
65876;HTU21D;52657;51.128;5.938;2022-11-03T00:53:41;14.39;64.48
65876;HTU21D;52657;51.128;5.938;2022-11-03T00:56:10;14.39;64.47
65876;HTU21D;52657;51.128;5.938;2022-11-03T00:58:37;14.39;64.50
65876;HTU21D;52657;51.128;5.938;2022-11-03T01:01:12;14.39;64.50
65876;HTU21D;52657;51.128;5.938;2022-11-03T01:03:40;14.39;64.36
65876;HTU21D;52657;51.128;5.938;2022-11-03T01:06:08;14.39;64.42
65876;HTU21D;52657;51.128;5.938;2022-11-03T01:08:53;14.39;64.43
65876;HTU21D;52657;51.128;5.938;2022-11-03T01:11:22;14.39;64.40
65876;HTU21D;52657;51.128;5.938;2022-11-03T01:14:10;14.40;64.41
65876;HTU21D;52657;51.128;5.938;2022-11-03T01:16:36;14.37;64.44
65876;HTU21D;52657;51.128;5.938;2022-11-03T01:19:02;14.34;64.48
65876;HTU21D;52657;51.128;5.938;2022-11-03T01:21:28;14.32;64.50
65876;HTU21D;52657;51.128;5.938;2022-11-03T01:23:54;14.29;64.56
65876;HTU21D;52657;51.128;5.938;2022-11-03T01:26:22;14.28;64.58
65876;HTU21D;52657;51.128;5.938;2022-11-03T01:28:48;14.28;64.50
65876;HTU21D;52657;51.128;5.938;2022-11-03T01:31:17;14.26;64.55
65876;HTU21D;52657;51.128;5.938;2022-11-03T01:33:44;14.25;64.73
65876;HTU21D;52657;51.128;5.938;2022-11-03T01:36:12;14.27;64.66
65876;HTU21D;52657;51.128;5.938;2022-11-03T01:38:39;14.28;64.59
65876;HTU21D;52657;51.128;5.938;2022-11-03T01:41:07;14.32;64.43
65876;HTU21D;52657;51.128;5.938;2022-11-03T01:43:33;14.30;64.41
65876;HTU21D;52657;51.128;5.938;2022-11-03T01:46:27;14.30;64.41
65876;HTU21D;52657;51.128;5.938;2022-11-03T01:49:04;14.30;64.43
65876;HTU21D;52657;51.128;5.938;2022-11-03T01:51:34;14.28;64.55
65876;HTU21D;52657;51.128;5.938;2022-11-03T01:54:06;14.26;64.60
65876;HTU21D;52657;51.128;5.938;2022-11-03T01:56:37;14.26;64.68
65876;HTU21D;52657;51.128;5.938;2022-11-03T01:59:06;14.26;64.66
65876;HTU21D;52657;51.128;5.938;2022-11-03T02:01:33;14.27;64.66
65876;HTU21D;52657;51.128;5.938;2022-11-03T02:04:07;14.27;64.70
65876;HTU21D;52657;51.128;5.938;2022-11-03T02:06:36;14.27;64.64
65876;HTU21D;52657;51.128;5.938;2022-11-03T02:09:05;14.28;64.59
65876;HTU21D;52657;51.128;5.938;2022-11-03T02:11:33;14.29;64.68
65876;HTU21D;52657;51.128;5.938;2022-11-03T02:14:17;14.29;64.69
65876;HTU21D;52657;51.128;5.938;2022-11-03T02:16:52;14.28;64.66
65876;HTU21D;52657;51.128;5.938;2022-11-03T02:22:23;14.30;64.55
65876;HTU21D;52657;51.128;5.938;2022-11-03T02:27:34;14.32;64.40
65876;HTU21D;52657;51.128;5.938;2022-11-03T02:30:00;14.33;64.38
65876;HTU21D;52657;51.128;5.938;2022-11-03T02:32:35;14.33;64.47
65876;HTU21D;52657;51.128;5.938;2022-11-03T02:35:28;14.33;64.43
65876;HTU21D;52657;51.128;5.938;2022-11-03T02:37:59;14.33;64.40
65876;HTU21D;52657;51.128;5.938;2022-11-03T02:40:35;14.33;64.47
65876;HTU21D;52657;51.128;5.938;2022-11-03T02:43:04;14.35;64.39
65876;HTU21D;52657;51.128;5.938;2022-11-03T02:45:31;14.38;64.23
65876;HTU21D;52657;51.128;5.938;2022-11-03T02:47:59;14.38;64.18
65876;HTU21D;52657;51.128;5.938;2022-11-03T02:50:28;14.37;64.22
65876;HTU21D;52657;51.128;5.938;2022-11-03T02:52:55;14.36;64.33
65876;HTU21D;52657;51.128;5.938;2022-11-03T02:55:45;14.36;64.26
65876;HTU21D;52657;51.128;5.938;2022-11-03T02:58:30;14.37;64.25
65876;HTU21D;52657;51.128;5.938;2022-11-03T03:03:52;14.35;64.34
65876;HTU21D;52657;51.128;5.938;2022-11-03T03:06:35;14.36;64.37
65876;HTU21D;52657;51.128;5.938;2022-11-03T03:09:06;14.37;64.30
65876;HTU21D;52657;51.128;5.938;2022-11-03T03:11:35;14.40;64.31
65876;HTU21D;52657;51.128;5.938;2022-11-03T03:14:10;14.40;64.31
65876;HTU21D;52657;51.128;5.938;2022-11-03T03:17:29;14.39;64.37
65876;HTU21D;52657;51.128;5.938;2022-11-03T03:20:25;14.39;64.37
65876;HTU21D;52657;51.128;5.938;2022-11-03T03:22:59;14.37;64.47
65876;HTU21D;52657;51.128;5.938;2022-11-03T03:25:35;14.36;64.58
65876;HTU21D;52657;51.128;5.938;2022-11-03T03:28:14;14.37;64.71
65876;HTU21D;52657;51.128;5.938;2022-11-03T03:30:45;14.34;64.76
65876;HTU21D;52657;51.128;5.938;2022-11-03T03:33:12;14.36;64.79
65876;HTU21D;52657;51.128;5.938;2022-11-03T03:35:42;14.35;64.92
65876;HTU21D;52657;51.128;5.938;2022-11-03T03:38:16;14.37;64.89
65876;HTU21D;52657;51.128;5.938;2022-11-03T03:40:49;14.41;64.80
65876;HTU21D;52657;51.128;5.938;2022-11-03T03:43:16;14.40;64.89
65876;HTU21D;52657;51.128;5.938;2022-11-03T03:45:45;14.37;65.01
65876;HTU21D;52657;51.128;5.938;2022-11-03T03:48:12;14.40;65.11
65876;HTU21D;52657;51.128;5.938;2022-11-03T03:50:41;14.40;65.13
65876;HTU21D;52657;51.128;5.938;2022-11-03T03:53:11;14.42;65.15
65876;HTU21D;52657;51.128;5.938;2022-11-03T03:55:42;14.41;65.34
65876;HTU21D;52657;51.128;5.938;2022-11-03T03:58:12;14.42;65.37
65876;HTU21D;52657;51.128;5.938;2022-11-03T04:00:39;14.41;65.46
65876;HTU21D;52657;51.128;5.938;2022-11-03T04:03:12;14.44;65.52
65876;HTU21D;52657;51.128;5.938;2022-11-03T04:05:38;14.44;65.59
65876;HTU21D;52657;51.128;5.938;2022-11-03T04:08:03;14.43;65.69
65876;HTU21D;52657;51.128;5.938;2022-11-03T04:10:29;14.43;65.78
65876;HTU21D;52657;51.128;5.938;2022-11-03T04:12:55;14.44;65.82
65876;HTU21D;52657;51.128;5.938;2022-11-03T04:15:39;14.42;65.93
65876;HTU21D;52657;51.128;5.938;2022-11-03T04:18:19;14.43;66.01
65876;HTU21D;52657;51.128;5.938;2022-11-03T04:21:04;14.42;66.20
65876;HTU21D;52657;51.128;5.938;2022-11-03T04:23:49;14.43;66.31
65876;HTU21D;52657;51.128;5.938;2022-11-03T04:26:17;14.41;66.49
65876;HTU21D;52657;51.128;5.938;2022-11-03T04:28:45;14.40;66.60
65876;HTU21D;52657;51.128;5.938;2022-11-03T04:31:12;14.41;66.71
65876;HTU21D;52657;51.128;5.938;2022-11-03T04:33:39;14.41;66.85
65876;HTU21D;52657;51.128;5.938;2022-11-03T04:36:25;14.43;66.87
65876;HTU21D;52657;51.128;5.938;2022-11-03T04:38:51;14.43;66.97
65876;HTU21D;52657;51.128;5.938;2022-11-03T04:41:23;14.43;67.04
65876;HTU21D;52657;51.128;5.938;2022-11-03T04:43:51;14.43;67.18
65876;HTU21D;52657;51.128;5.938;2022-11-03T04:46:28;14.47;67.26
65876;HTU21D;52657;51.128;5.938;2022-11-03T04:48:57;14.48;67.36
65876;HTU21D;52657;51.128;5.938;2022-11-03T04:51:26;14.47;67.48
65876;HTU21D;52657;51.128;5.938;2022-11-03T04:54:00;14.48;67.56
65876;HTU21D;52657;51.128;5.938;2022-11-03T04:56:27;14.51;67.59
65876;HTU21D;52657;51.128;5.938;2022-11-03T04:58:53;14.50;67.65
65876;HTU21D;52657;51.128;5.938;2022-11-03T05:01:21;14.52;67.75
65876;HTU21D;52657;51.128;5.938;2022-11-03T05:03:49;14.54;67.79
65876;HTU21D;52657;51.128;5.938;2022-11-03T05:06:19;14.55;67.84
65876;HTU21D;52657;51.128;5.938;2022-11-03T05:08:49;14.56;67.83
65876;HTU21D;52657;51.128;5.938;2022-11-03T05:11:33;14.58;67.84
65876;HTU21D;52657;51.128;5.938;2022-11-03T05:14:03;14.59;67.91
65876;HTU21D;52657;51.128;5.938;2022-11-03T05:16:31;14.60;67.91
65876;HTU21D;52657;51.128;5.938;2022-11-03T05:18:57;14.62;67.94
65876;HTU21D;52657;51.128;5.938;2022-11-03T05:21:26;14.62;68.07
65876;HTU21D;52657;51.128;5.938;2022-11-03T05:24:01;14.63;68.08
65876;HTU21D;52657;51.128;5.938;2022-11-03T05:26:30;14.66;68.03
65876;HTU21D;52657;51.128;5.938;2022-11-03T05:29:02;14.66;67.97
65876;HTU21D;52657;51.128;5.938;2022-11-03T05:31:31;14.67;68.04
65876;HTU21D;52657;51.128;5.938;2022-11-03T05:34:01;14.68;68.04
65876;HTU21D;52657;51.128;5.938;2022-11-03T05:36:29;14.71;68.01
65876;HTU21D;52657;51.128;5.938;2022-11-03T05:39:00;14.70;68.03
65876;HTU21D;52657;51.128;5.938;2022-11-03T05:41:37;14.74;67.95
65876;HTU21D;52657;51.128;5.938;2022-11-03T05:44:38;14.74;67.91
65876;HTU21D;52657;51.128;5.938;2022-11-03T05:47:25;14.75;67.84
65876;HTU21D;52657;51.128;5.938;2022-11-03T05:49:59;14.74;67.93
65876;HTU21D;52657;51.128;5.938;2022-11-03T05:52:27;14.72;67.94
65876;HTU21D;52657;51.128;5.938;2022-11-03T05:54:56;14.74;67.97
65876;HTU21D;52657;51.128;5.938;2022-11-03T05:57:27;14.71;68.05
65876;HTU21D;52657;51.128;5.938;2022-11-03T05:59:53;14.74;67.97
65876;HTU21D;52657;51.128;5.938;2022-11-03T06:04:51;14.75;67.91
65876;HTU21D;52657;51.128;5.938;2022-11-03T06:07:29;14.77;67.88
65876;HTU21D;52657;51.128;5.938;2022-11-03T06:09:57;14.77;67.85
65876;HTU21D;52657;51.128;5.938;2022-11-03T06:12:24;14.78;67.75
65876;HTU21D;52657;51.128;5.938;2022-11-03T06:14:51;14.78;67.72
65876;HTU21D;52657;51.128;5.938;2022-11-03T06:17:27;14.80;67.69
65876;HTU21D;52657;51.128;5.938;2022-11-03T06:19:56;14.80;67.61
65876;HTU21D;52657;51.128;5.938;2022-11-03T06:22:35;14.80;67.59
65876;HTU21D;52657;51.128;5.938;2022-11-03T06:25:21;14.81;67.55
65876;HTU21D;52657;51.128;5.938;2022-11-03T06:27:48;14.81;67.54
65876;HTU21D;52657;51.128;5.938;2022-11-03T06:30:44;14.80;67.54
65876;HTU21D;52657;51.128;5.938;2022-11-03T06:33:28;14.80;67.51
65876;HTU21D;52657;51.128;5.938;2022-11-03T06:36:00;14.81;67.48
65876;HTU21D;52657;51.128;5.938;2022-11-03T06:38:28;14.79;67.48
65876;HTU21D;52657;51.128;5.938;2022-11-03T06:40:56;14.79;67.50
65876;HTU21D;52657;51.128;5.938;2022-11-03T06:43:36;14.78;67.53
65876;HTU21D;52657;51.128;5.938;2022-11-03T06:46:19;14.75;67.53
65876;HTU21D;52657;51.128;5.938;2022-11-03T06:48:45;14.77;67.58
65876;HTU21D;52657;51.128;5.938;2022-11-03T06:51:21;14.77;67.59
65876;HTU21D;52657;51.128;5.938;2022-11-03T06:53:49;14.79;67.52
65876;HTU21D;52657;51.128;5.938;2022-11-03T06:56:27;14.79;67.49
65876;HTU21D;52657;51.128;5.938;2022-11-03T06:58:55;14.79;67.55
65876;HTU21D;52657;51.128;5.938;2022-11-03T07:01:24;14.77;67.51
65876;HTU21D;52657;51.128;5.938;2022-11-03T07:03:58;14.79;67.52
65876;HTU21D;52657;51.128;5.938;2022-11-03T07:06:31;14.77;67.55
65876;HTU21D;52657;51.128;5.938;2022-11-03T07:09:01;14.80;67.55
65876;HTU21D;52657;51.128;5.938;2022-11-03T07:11:51;14.83;67.43
65876;HTU21D;52657;51.128;5.938;2022-11-03T07:14:27;14.82;67.49
65876;HTU21D;52657;51.128;5.938;2022-11-03T07:16:56;14.82;67.37
65876;HTU21D;52657;51.128;5.938;2022-11-03T07:19:26;14.83;67.36
65876;HTU21D;52657;51.128;5.938;2022-11-03T07:24:30;14.85;67.17
65876;HTU21D;52657;51.128;5.938;2022-11-03T07:27:06;14.88;67.16
65876;HTU21D;52657;51.128;5.938;2022-11-03T07:29:35;14.91;67.02
65876;HTU21D;52657;51.128;5.938;2022-11-03T07:32:01;14.92;66.97
65876;HTU21D;52657;51.128;5.938;2022-11-03T07:34:34;14.93;66.88
65876;HTU21D;52657;51.128;5.938;2022-11-03T07:36:59;14.98;66.72
65876;HTU21D;52657;51.128;5.938;2022-11-03T07:39:32;15.01;66.62
65876;HTU21D;52657;51.128;5.938;2022-11-03T07:42:02;15.01;66.46
65876;HTU21D;52657;51.128;5.938;2022-11-03T07:44:33;15.07;66.27
65876;HTU21D;52657;51.128;5.938;2022-11-03T07:46:59;15.08;66.13
65876;HTU21D;52657;51.128;5.938;2022-11-03T07:49:29;15.13;65.93
65876;HTU21D;52657;51.128;5.938;2022-11-03T07:51:58;15.16;65.91
65876;HTU21D;52657;51.128;5.938;2022-11-03T07:54:29;15.18;65.88
65876;HTU21D;52657;51.128;5.938;2022-11-03T07:57:04;15.23;65.66
65876;HTU21D;52657;51.128;5.938;2022-11-03T07:59:41;15.27;65.43
65876;HTU21D;52657;51.128;5.938;2022-11-03T08:04:45;15.28;65.48
65876;HTU21D;52657;51.128;5.938;2022-11-03T08:07:11;15.32;65.36
65876;HTU21D;52657;51.128;5.938;2022-11-03T08:09:37;15.36;65.27
65876;HTU21D;52657;51.128;5.938;2022-11-03T08:12:03;15.40;65.02
65876;HTU21D;52657;51.128;5.938;2022-11-03T08:14:28;15.44;65.02
65876;HTU21D;52657;51.128;5.938;2022-11-03T08:16:55;15.46;64.80
65876;HTU21D;52657;51.128;5.938;2022-11-03T08:19:21;15.47;64.88
65876;HTU21D;52657;51.128;5.938;2022-11-03T08:21:47;15.48;64.82
65876;HTU21D;52657;51.128;5.938;2022-11-03T08:24:13;15.54;64.43
65876;HTU21D;52657;51.128;5.938;2022-11-03T08:26:39;15.56;64.34
65876;HTU21D;52657;51.128;5.938;2022-11-03T08:29:04;15.58;64.18
65876;HTU21D;52657;51.128;5.938;2022-11-03T08:31:30;15.60;64.05
65876;HTU21D;52657;51.128;5.938;2022-11-03T08:33:56;15.62;64.01
65876;HTU21D;52657;51.128;5.938;2022-11-03T08:36:21;15.66;63.79
65876;HTU21D;52657;51.128;5.938;2022-11-03T08:38:47;15.70;63.69
65876;HTU21D;52657;51.128;5.938;2022-11-03T08:41:13;15.75;63.39
65876;HTU21D;52657;51.128;5.938;2022-11-03T08:43:39;15.76;63.19
65876;HTU21D;52657;51.128;5.938;2022-11-03T08:46:04;15.84;62.98
65876;HTU21D;52657;51.128;5.938;2022-11-03T08:48:30;15.88;62.78
65876;HTU21D;52657;51.128;5.938;2022-11-03T08:50:56;15.91;62.65
65876;HTU21D;52657;51.128;5.938;2022-11-03T08:53:23;15.96;62.50
65876;HTU21D;52657;51.128;5.938;2022-11-03T08:55:53;15.99;62.30
65876;HTU21D;52657;51.128;5.938;2022-11-03T08:58:20;16.05;62.24
65876;HTU21D;52657;51.128;5.938;2022-11-03T09:00:46;16.10;62.09
65876;HTU21D;52657;51.128;5.938;2022-11-03T09:03:13;16.15;61.76
65876;HTU21D;52657;51.128;5.938;2022-11-03T09:05:39;16.20;61.59
65876;HTU21D;52657;51.128;5.938;2022-11-03T09:08:05;16.26;61.21
65876;HTU21D;52657;51.128;5.938;2022-11-03T09:10:32;16.30;60.94
65876;HTU21D;52657;51.128;5.938;2022-11-03T09:12:58;16.34;60.70
65876;HTU21D;52657;51.128;5.938;2022-11-03T09:15:23;16.35;60.82
65876;HTU21D;52657;51.128;5.938;2022-11-03T09:17:49;16.41;60.60
65876;HTU21D;52657;51.128;5.938;2022-11-03T09:20:15;16.42;60.54
65876;HTU21D;52657;51.128;5.938;2022-11-03T09:22:41;16.44;60.11
65876;HTU21D;52657;51.128;5.938;2022-11-03T09:25:07;16.47;59.83
65876;HTU21D;52657;51.128;5.938;2022-11-03T09:27:33;16.50;59.73
65876;HTU21D;52657;51.128;5.938;2022-11-03T09:29:58;16.54;59.64
65876;HTU21D;52657;51.128;5.938;2022-11-03T09:32:25;16.55;59.44
65876;HTU21D;52657;51.128;5.938;2022-11-03T09:34:51;16.59;59.04
65876;HTU21D;52657;51.128;5.938;2022-11-03T09:37:17;16.60;59.16
65876;HTU21D;52657;51.128;5.938;2022-11-03T09:39:43;16.60;59.12
65876;HTU21D;52657;51.128;5.938;2022-11-03T09:42:10;16.59;58.90
65876;HTU21D;52657;51.128;5.938;2022-11-03T09:44:37;16.64;58.92
65876;HTU21D;52657;51.128;5.938;2022-11-03T09:47:04;16.70;58.93
65876;HTU21D;52657;51.128;5.938;2022-11-03T09:49:32;16.70;58.95
65876;HTU21D;52657;51.128;5.938;2022-11-03T09:52:02;16.72;59.15
65876;HTU21D;52657;51.128;5.938;2022-11-03T09:54:28;16.76;59.06
65876;HTU21D;52657;51.128;5.938;2022-11-03T09:57:08;16.77;58.92
65876;HTU21D;52657;51.128;5.938;2022-11-03T09:59:36;16.79;58.68
65876;HTU21D;52657;51.128;5.938;2022-11-03T10:02:02;16.77;58.51
65876;HTU21D;52657;51.128;5.938;2022-11-03T10:04:33;16.78;58.53
65876;HTU21D;52657;51.128;5.938;2022-11-03T10:06:58;16.79;58.61
65876;HTU21D;52657;51.128;5.938;2022-11-03T10:09:27;16.87;58.41
65876;HTU21D;52657;51.128;5.938;2022-11-03T10:11:54;16.84;58.52
65876;HTU21D;52657;51.128;5.938;2022-11-03T10:14:21;16.85;58.36
65876;HTU21D;52657;51.128;5.938;2022-11-03T10:17:13;16.88;58.28
65876;HTU21D;52657;51.128;5.938;2022-11-03T10:19:39;16.92;58.16
65876;HTU21D;52657;51.128;5.938;2022-11-03T10:22:06;16.94;58.14
65876;HTU21D;52657;51.128;5.938;2022-11-03T10:24:32;16.93;58.09
65876;HTU21D;52657;51.128;5.938;2022-11-03T10:26:57;16.95;58.07
65876;HTU21D;52657;51.128;5.938;2022-11-03T10:29:25;16.95;58.39
65876;HTU21D;52657;51.128;5.938;2022-11-03T10:31:56;17.00;58.10
65876;HTU21D;52657;51.128;5.938;2022-11-03T10:34:33;17.00;58.07
65876;HTU21D;52657;51.128;5.938;2022-11-03T10:37:29;17.02;58.16
65876;HTU21D;52657;51.128;5.938;2022-11-03T10:39:56;17.03;58.00
65876;HTU21D;52657;51.128;5.938;2022-11-03T10:42:29;17.04;57.93
65876;HTU21D;52657;51.128;5.938;2022-11-03T10:45:14;17.06;58.08
65876;HTU21D;52657;51.128;5.938;2022-11-03T10:47:40;17.11;57.96
65876;HTU21D;52657;51.128;5.938;2022-11-03T10:50:22;17.17;57.77
65876;HTU21D;52657;51.128;5.938;2022-11-03T10:52:49;17.20;57.61
65876;HTU21D;52657;51.128;5.938;2022-11-03T10:55:17;17.19;57.51
65876;HTU21D;52657;51.128;5.938;2022-11-03T10:57:45;17.21;57.67
65876;HTU21D;52657;51.128;5.938;2022-11-03T11:00:18;17.24;57.53
65876;HTU21D;52657;51.128;5.938;2022-11-03T11:02:45;17.24;57.29
65876;HTU21D;52657;51.128;5.938;2022-11-03T11:05:19;17.30;57.36
65876;HTU21D;52657;51.128;5.938;2022-11-03T11:07:46;17.34;57.35
65876;HTU21D;52657;51.128;5.938;2022-11-03T11:15:55;17.45;57.03
65876;HTU21D;52657;51.128;5.938;2022-11-03T11:31:01;17.55;57.51
65876;HTU21D;52657;51.128;5.938;2022-11-03T11:33:29;17.55;57.35
65876;HTU21D;52657;51.128;5.938;2022-11-03T11:41:17;17.67;57.24
65876;HTU21D;52657;51.128;5.938;2022-11-03T11:43:43;17.68;57.34
65876;HTU21D;52657;51.128;5.938;2022-11-03T11:46:37;17.73;57.44
65876;HTU21D;52657;51.128;5.938;2022-11-03T11:51:34;17.77;57.60
65876;HTU21D;52657;51.128;5.938;2022-11-03T11:54:06;17.80;57.77
65876;HTU21D;52657;51.128;5.938;2022-11-03T11:56:33;17.83;57.94
65876;HTU21D;52657;51.128;5.938;2022-11-03T11:59:15;17.83;58.11
65876;HTU21D;52657;51.128;5.938;2022-11-03T12:01:41;17.90;58.32
65876;HTU21D;52657;51.128;5.938;2022-11-03T12:04:19;17.93;57.95
65876;HTU21D;52657;51.128;5.938;2022-11-03T12:06:45;17.95;57.55
65876;HTU21D;52657;51.128;5.938;2022-11-03T12:11:51;18.02;57.51
65876;HTU21D;52657;51.128;5.938;2022-11-03T12:16:47;18.09;56.76
65876;HTU21D;52657;51.128;5.938;2022-11-03T12:19:35;18.11;56.70
65876;HTU21D;52657;51.128;5.938;2022-11-03T12:22:03;18.12;56.25
65876;HTU21D;52657;51.128;5.938;2022-11-03T12:26:56;18.10;55.56
65876;HTU21D;52657;51.128;5.938;2022-11-03T12:29:21;18.08;55.64
65876;HTU21D;52657;51.128;5.938;2022-11-03T12:31:48;18.10;55.70
65876;HTU21D;52657;51.128;5.938;2022-11-03T12:34:14;18.08;55.54
65876;HTU21D;52657;51.128;5.938;2022-11-03T12:36:41;18.07;55.51
65876;HTU21D;52657;51.128;5.938;2022-11-03T12:39:07;18.09;55.11
65876;HTU21D;52657;51.128;5.938;2022-11-03T12:41:33;18.09;55.19
65876;HTU21D;52657;51.128;5.938;2022-11-03T12:43:58;18.12;55.00
65876;HTU21D;52657;51.128;5.938;2022-11-03T12:46:24;18.14;55.02
65876;HTU21D;52657;51.128;5.938;2022-11-03T12:48:50;18.17;54.83
65876;HTU21D;52657;51.128;5.938;2022-11-03T12:51:21;18.23;54.84
65876;HTU21D;52657;51.128;5.938;2022-11-03T12:53:48;18.24;54.78
65876;HTU21D;52657;51.128;5.938;2022-11-03T12:56:15;18.26;55.00
65876;HTU21D;52657;51.128;5.938;2022-11-03T12:58:41;18.26;54.97
65876;HTU21D;52657;51.128;5.938;2022-11-03T13:01:07;18.29;54.69
65876;HTU21D;52657;51.128;5.938;2022-11-03T13:03:34;18.33;54.70
65876;HTU21D;52657;51.128;5.938;2022-11-03T13:06:02;18.36;54.65
65876;HTU21D;52657;51.128;5.938;2022-11-03T13:08:30;18.37;54.67
65876;HTU21D;52657;51.128;5.938;2022-11-03T13:10:56;18.42;54.64
65876;HTU21D;52657;51.128;5.938;2022-11-03T13:13:22;18.39;54.01
65876;HTU21D;52657;51.128;5.938;2022-11-03T13:15:48;18.39;54.30
65876;HTU21D;52657;51.128;5.938;2022-11-03T13:18:13;18.39;54.59
65876;HTU21D;52657;51.128;5.938;2022-11-03T13:20:39;18.41;54.43
65876;HTU21D;52657;51.128;5.938;2022-11-03T13:23:05;18.41;54.19
65876;HTU21D;52657;51.128;5.938;2022-11-03T13:25:31;18.42;54.07
65876;HTU21D;52657;51.128;5.938;2022-11-03T13:27:57;18.42;54.39
65876;HTU21D;52657;51.128;5.938;2022-11-03T13:30:25;18.41;54.17
65876;HTU21D;52657;51.128;5.938;2022-11-03T13:32:52;18.38;54.37
65876;HTU21D;52657;51.128;5.938;2022-11-03T13:35:18;18.36;54.17
65876;HTU21D;52657;51.128;5.938;2022-11-03T13:37:45;18.35;54.43
65876;HTU21D;52657;51.128;5.938;2022-11-03T13:40:12;18.40;54.00
65876;HTU21D;52657;51.128;5.938;2022-11-03T13:42:38;18.33;54.04
65876;HTU21D;52657;51.128;5.938;2022-11-03T13:45:05;18.33;54.20
65876;HTU21D;52657;51.128;5.938;2022-11-03T13:47:32;18.30;54.71
65876;HTU21D;52657;51.128;5.938;2022-11-03T13:49:58;18.29;55.00
65876;HTU21D;52657;51.128;5.938;2022-11-03T13:52:27;18.25;55.24
65876;HTU21D;52657;51.128;5.938;2022-11-03T13:54:53;18.24;55.23
65876;HTU21D;52657;51.128;5.938;2022-11-03T13:57:20;18.22;55.93
65876;HTU21D;52657;51.128;5.938;2022-11-03T13:59:46;18.17;56.90
65876;HTU21D;52657;51.128;5.938;2022-11-03T14:02:12;18.15;57.90
65876;HTU21D;52657;51.128;5.938;2022-11-03T14:04:38;18.13;59.19
65876;HTU21D;52657;51.128;5.938;2022-11-03T14:07:05;18.10;59.06
65876;HTU21D;52657;51.128;5.938;2022-11-03T14:09:31;18.07;61.11
65876;HTU21D;52657;51.128;5.938;2022-11-03T14:11:57;18.00;61.80
65876;HTU21D;52657;51.128;5.938;2022-11-03T14:14:43;17.95;62.66
65876;HTU21D;52657;51.128;5.938;2022-11-03T14:17:08;17.89;62.74
65876;HTU21D;52657;51.128;5.938;2022-11-03T14:19:34;17.87;63.59
65876;HTU21D;52657;51.128;5.938;2022-11-03T14:22:00;17.83;63.75
65876;HTU21D;52657;51.128;5.938;2022-11-03T14:24:26;17.78;64.59
65876;HTU21D;52657;51.128;5.938;2022-11-03T14:26:52;17.73;64.87
65876;HTU21D;52657;51.128;5.938;2022-11-03T14:29:18;17.64;64.65
65876;HTU21D;52657;51.128;5.938;2022-11-03T14:31:45;17.52;64.09
65876;HTU21D;52657;51.128;5.938;2022-11-03T14:34:11;17.39;63.95
65876;HTU21D;52657;51.128;5.938;2022-11-03T14:36:37;17.23;64.19
65876;HTU21D;52657;51.128;5.938;2022-11-03T14:39:03;17.10;64.47
65876;HTU21D;52657;51.128;5.938;2022-11-03T14:41:29;16.98;64.87
65876;HTU21D;52657;51.128;5.938;2022-11-03T14:44:13;16.91;65.29
65876;HTU21D;52657;51.128;5.938;2022-11-03T14:46:39;16.87;65.80
65876;HTU21D;52657;51.128;5.938;2022-11-03T14:49:05;16.86;65.80
65876;HTU21D;52657;51.128;5.938;2022-11-03T14:51:31;16.84;65.82
65876;HTU21D;52657;51.128;5.938;2022-11-03T14:53:57;16.79;65.95
65876;HTU21D;52657;51.128;5.938;2022-11-03T14:56:24;16.78;66.01
65876;HTU21D;52657;51.128;5.938;2022-11-03T14:58:50;16.74;66.27
65876;HTU21D;52657;51.128;5.938;2022-11-03T15:01:17;16.74;66.57
65876;HTU21D;52657;51.128;5.938;2022-11-03T15:03:45;16.70;66.59
65876;HTU21D;52657;51.128;5.938;2022-11-03T15:06:11;16.67;66.69
65876;HTU21D;52657;51.128;5.938;2022-11-03T15:08:37;16.66;66.77
65876;HTU21D;52657;51.128;5.938;2022-11-03T15:11:05;16.64;66.91
65876;HTU21D;52657;51.128;5.938;2022-11-03T15:13:33;16.59;66.81
65876;HTU21D;52657;51.128;5.938;2022-11-03T15:15:59;16.57;66.24
65876;HTU21D;52657;51.128;5.938;2022-11-03T15:18:26;16.55;66.93
65876;HTU21D;52657;51.128;5.938;2022-11-03T15:20:52;16.55;66.70
65876;HTU21D;52657;51.128;5.938;2022-11-03T15:23:18;16.47;66.86
65876;HTU21D;52657;51.128;5.938;2022-11-03T15:25:45;16.48;67.33
65876;HTU21D;52657;51.128;5.938;2022-11-03T15:28:11;16.49;67.28
65876;HTU21D;52657;51.128;5.938;2022-11-03T15:30:37;16.52;66.68
65876;HTU21D;52657;51.128;5.938;2022-11-03T15:33:03;16.48;66.74
65876;HTU21D;52657;51.128;5.938;2022-11-03T15:35:29;16.44;66.60
65876;HTU21D;52657;51.128;5.938;2022-11-03T15:37:55;16.45;66.73
65876;HTU21D;52657;51.128;5.938;2022-11-03T15:40:24;16.48;66.44
65876;HTU21D;52657;51.128;5.938;2022-11-03T15:42:51;16.44;66.69
65876;HTU21D;52657;51.128;5.938;2022-11-03T15:45:17;16.44;66.91
65876;HTU21D;52657;51.128;5.938;2022-11-03T15:47:43;16.44;66.56
65876;HTU21D;52657;51.128;5.938;2022-11-03T15:50:10;16.45;66.59
65876;HTU21D;52657;51.128;5.938;2022-11-03T15:52:37;16.44;66.33
65876;HTU21D;52657;51.128;5.938;2022-11-03T15:55:05;16.42;66.43
65876;HTU21D;52657;51.128;5.938;2022-11-03T15:57:31;16.45;66.39
65876;HTU21D;52657;51.128;5.938;2022-11-03T15:59:57;16.45;66.43
65876;HTU21D;52657;51.128;5.938;2022-11-03T16:02:24;16.42;66.33
65876;HTU21D;52657;51.128;5.938;2022-11-03T16:04:49;16.41;66.60
65876;HTU21D;52657;51.128;5.938;2022-11-03T16:07:15;16.42;66.76
65876;HTU21D;52657;51.128;5.938;2022-11-03T16:09:41;16.41;66.94
65876;HTU21D;52657;51.128;5.938;2022-11-03T16:12:07;16.39;67.27
65876;HTU21D;52657;51.128;5.938;2022-11-03T16:14:33;16.41;67.36
65876;HTU21D;52657;51.128;5.938;2022-11-03T16:16:59;16.41;67.49
65876;HTU21D;52657;51.128;5.938;2022-11-03T16:19:25;16.39;67.58
65876;HTU21D;52657;51.128;5.938;2022-11-03T16:21:51;16.36;67.81
65876;HTU21D;52657;51.128;5.938;2022-11-03T16:24:17;16.36;67.81